Time;durP1;ratioP1;P1;durP2;ratioP2;P2;SDS_P1;SDS_P2;PMS_P1;PMS_P2;Temp;Humidity;BMP_temperature;BMP_pressure;BME280_temperature;BME280_humidity;BME280_pressure;Samples;Min_cycle;Max_cycle;Signal;HPM_P1;HPM_P2
2022/07/24 00:00:23;;;;;;;2.72;2.17;;;;;;;25.43;43.58;99652.16;4835867;29;20044;-95
2022/07/24 00:02:50;;;;;;;2.38;1.83;;;;;;;25.58;43.40;99678.94;4838177;29;20042;-95
2022/07/24 00:05:16;;;;;;;2.58;1.40;;;;;;;25.38;43.39;99654.38;4841005;29;20041;-94
2022/07/24 00:07:41;;;;;;;3.00;2.10;;;;;;;25.13;44.21;99650.81;4835727;29;20038;-96
2022/07/24 00:10:08;;;;;;;4.50;2.00;;;;;;;25.19;43.90;99669.25;4852741;29;20046;-95
2022/07/24 00:12:35;;;;;;;8.10;2.42;;;;;;;25.10;43.59;99644.78;4851313;29;20490;-94
2022/07/24 00:15:01;;;;;;;3.20;1.80;;;;;;;25.41;43.80;99697.34;4839079;29;20054;-96
2022/07/24 00:17:27;;;;;;;3.03;1.50;;;;;;;25.15;44.87;99688.50;4822669;29;20042;-92
2022/07/24 00:19:52;;;;;;;3.22;1.75;;;;;;;25.08;44.92;99671.03;4835969;29;20057;-92
2022/07/24 00:22:18;;;;;;;3.67;2.13;;;;;;;25.09;44.45;99683.56;4849883;29;20053;-94
2022/07/24 00:24:43;;;;;;;3.75;2.15;;;;;;;25.15;44.39;99697.44;4850393;29;20038;-91
2022/07/24 00:27:09;;;;;;;3.95;1.95;;;;;;;24.95;44.54;99673.81;4851474;29;20078;-96
2022/07/24 00:29:35;;;;;;;6.20;3.45;;;;;;;24.82;45.12;99661.25;4850041;29;20038;-95
2022/07/24 00:32:00;;;;;;;3.67;2.28;;;;;;;24.79;45.40;99663.28;4821052;29;20422;-93
2022/07/24 00:34:26;;;;;;;6.93;2.78;;;;;;;24.82;44.75;99676.53;4836009;29;20058;-91
2022/07/24 00:36:51;;;;;;;4.10;2.42;;;;;;;24.75;45.21;99686.09;4835759;29;20038;-92
2022/07/24 00:39:17;;;;;;;2.67;2.13;;;;;;;24.79;45.53;99691.16;4834996;29;20073;-94
2022/07/24 00:41:42;;;;;;;3.03;1.92;;;;;;;24.84;46.42;99702.44;4832432;29;20042;-96
2022/07/24 00:44:14;;;;;;;3.55;2.35;;;;;;;24.84;46.04;99704.28;4834880;29;20631;-94
2022/07/24 00:46:43;;;;;;;3.42;2.35;;;;;;;24.67;46.43;99675.88;4836194;29;20508;-92
2022/07/24 00:49:12;;;;;;;4.18;2.28;;;;;;;24.61;45.87;99673.63;4833860;29;20132;-93
2022/07/24 00:51:41;;;;;;;2.45;1.70;;;;;;;24.68;46.33;99699.16;4834467;29;20069;-91
2022/07/24 00:54:08;;;;;;;3.35;2.08;;;;;;;24.42;46.72;99669.56;4849425;29;20073;-94
2022/07/24 00:56:34;;;;;;;4.65;2.92;;;;;;;24.47;46.69;99699.72;4850762;29;20038;-94
2022/07/24 00:59:02;;;;;;;4.25;2.45;;;;;;;24.39;46.74;99671.59;4850233;29;20045;-92
2022/07/24 01:01:28;;;;;;;3.00;2.28;;;;;;;24.43;46.48;99689.28;4850098;29;20884;-88
2022/07/24 01:03:53;;;;;;;4.10;3.28;;;;;;;24.29;46.88;99683.03;4824198;29;20038;-90
2022/07/24 01:06:19;;;;;;;3.97;2.08;;;;;;;24.37;47.04;99706.75;4849745;29;20034;-92
2022/07/24 01:08:46;;;;;;;3.67;2.03;;;;;;;23.99;47.24;99663.69;4849465;29;20078;-93
2022/07/24 01:11:12;;;;;;;4.00;1.83;;;;;;;24.18;47.47;99676.72;4834466;29;20066;-92
2022/07/24 01:13:38;;;;;;;2.72;1.42;;;;;;;24.22;47.51;99679.09;4815314;29;20114;-93
2022/07/24 01:16:04;;;;;;;2.88;1.63;;;;;;;24.09;47.51;99671.00;4813513;29;20038;-91
2022/07/24 01:18:30;;;;;;;3.22;2.08;;;;;;;23.82;48.03;99644.19;4815717;29;20048;-91
2022/07/24 01:20:55;;;;;;;4.13;2.80;;;;;;;23.99;48.26;99669.09;4829792;29;20525;-92
2022/07/24 01:23:22;;;;;;;3.55;1.98;;;;;;;23.86;48.02;99644.84;4819189;29;20038;-89
2022/07/24 01:25:48;;;;;;;2.45;1.20;;;;;;;23.91;48.16;99665.13;4820299;29;20034;-90
2022/07/24 01:28:13;;;;;;;3.35;2.00;;;;;;;23.74;48.14;99641.16;4820649;29;20094;-93
2022/07/24 01:30:39;;;;;;;4.28;1.70;;;;;;;23.94;48.34;99674.78;4819987;29;20038;-91
2022/07/24 01:33:05;;;;;;;2.88;1.60;;;;;;;24.03;47.83;99686.75;4820097;29;20060;-93
2022/07/24 01:35:30;;;;;;;4.05;2.47;;;;;;;23.81;48.08;99637.06;4835849;29;20042;-94
2022/07/24 01:37:56;;;;;;;2.78;1.60;;;;;;;24.08;48.11;99677.38;4820487;29;20042;-90
2022/07/24 01:40:22;;;;;;;2.30;1.60;;;;;;;24.10;47.76;99653.03;4818660;29;20057;-90
2022/07/24 01:42:48;;;;;;;2.53;1.77;;;;;;;24.24;47.88;99677.13;4833343;29;20431;-92
2022/07/24 01:45:14;;;;;;;2.58;1.67;;;;;;;24.15;47.80;99666.16;4818410;29;20031;-90
2022/07/24 01:47:41;;;;;;;2.17;1.30;;;;;;;24.09;48.01;99644.06;4819850;29;20038;-93
2022/07/24 01:50:07;;;;;;;5.45;1.30;;;;;;;24.05;48.58;99666.84;4848433;29;20033;-94
2022/07/24 01:52:33;;;;;;;3.72;1.60;;;;;;;24.18;48.56;99676.72;4842203;29;20045;-93
2022/07/24 01:54:58;;;;;;;2.88;1.77;;;;;;;24.22;48.71;99665.63;4838795;29;20048;-93
2022/07/24 01:57:24;;;;;;;2.85;1.60;;;;;;;24.02;48.33;99634.72;4854754;29;20042;-93
2022/07/24 01:59:49;;;;;;;4.43;1.77;;;;;;;24.23;48.34;99661.94;4839697;29;20038;-93
2022/07/24 02:02:15;;;;;;;3.45;1.60;;;;;;;23.84;48.76;99604.56;4840514;29;20090;-92
2022/07/24 02:04:41;;;;;;;6.20;1.50;;;;;;;24.02;48.89;99637.41;4854173;29;20046;-95
2022/07/24 02:07:07;;;;;;;2.75;2.05;;;;;;;24.27;48.86;99667.97;4836804;29;20042;-94
2022/07/24 02:09:32;;;;;;;3.15;1.80;;;;;;;24.18;48.84;99661.41;4856671;29;20052;-93
2022/07/24 02:11:58;;;;;;;5.22;1.95;;;;;;;24.06;48.93;99657.75;4839378;29;20059;-94
2022/07/24 02:14:23;;;;;;;1.90;1.33;;;;;;;24.03;49.00;99636.41;4853007;29;20030;-88
2022/07/24 02:16:49;;;;;;;2.40;1.58;;;;;;;24.01;49.21;99642.91;4853283;29;20045;-91
2022/07/24 02:19:15;;;;;;;3.10;1.73;;;;;;;24.12;49.52;99662.69;4839154;29;20077;-90
2022/07/24 02:21:42;;;;;;;2.28;1.42;;;;;;;23.83;49.36;99650.44;4837641;29;20045;-92
2022/07/24 02:24:07;;;;;;;2.80;1.77;;;;;;;23.88;49.91;99659.06;4837784;29;20501;-90
2022/07/24 02:26:33;;;;;;;4.10;2.15;;;;;;;23.72;50.34;99621.56;4838898;29;20041;-91
2022/07/24 02:28:58;;;;;;;4.93;2.35;;;;;;;23.80;49.79;99640.72;4837984;29;20038;-93
2022/07/24 02:31:24;;;;;;;2.92;1.33;;;;;;;23.83;50.29;99661.19;4838590;29;20038;-91
2022/07/24 02:33:49;;;;;;;3.92;2.08;;;;;;;23.50;51.13;99622.22;4837598;29;20058;-92
2022/07/24 02:36:16;;;;;;;2.97;1.63;;;;;;;23.44;51.50;99628.03;4837141;29;20046;-94
2022/07/24 02:38:43;;;;;;;3.33;2.47;;;;;;;23.36;50.80;99610.59;4853780;29;20030;-93
2022/07/24 02:41:08;;;;;;;5.55;2.20;;;;;;;23.59;49.88;99656.59;4839439;29;20116;-93
2022/07/24 02:43:33;;;;;;;4.25;2.40;;;;;;;23.46;50.84;99650.31;4837056;29;20042;-93
2022/07/24 02:46:00;;;;;;;2.45;1.88;;;;;;;23.42;51.04;99658.59;4852914;29;20030;-93
2022/07/24 02:48:26;;;;;;;4.13;2.15;;;;;;;23.26;50.74;99636.41;4853351;29;20129;-93
2022/07/24 02:50:52;;;;;;;4.60;1.92;;;;;;;23.46;50.54;99653.00;4853630;29;20182;-95
2022/07/24 02:53:18;;;;;;;2.72;1.35;;;;;;;23.36;51.14;99632.13;4839398;29;20038;-95
2022/07/24 02:55:43;;;;;;;2.58;1.52;;;;;;;23.13;51.87;99608.63;4837792;29;20048;-94
2022/07/24 02:58:09;;;;;;;6.43;3.25;;;;;;;23.18;52.17;99636.06;4838976;29;20052;-91
2022/07/24 03:00:35;;;;;;;3.65;2.40;;;;;;;23.20;52.00;99645.78;4853654;29;20481;-94
2022/07/24 03:03:00;;;;;;;4.65;2.42;;;;;;;23.13;52.48;99632.84;4854184;29;20093;-95
2022/07/24 03:05:27;;;;;;;3.10;1.55;;;;;;;23.24;52.73;99636.50;4852917;29;20042;-90
2022/07/24 03:07:53;;;;;;;3.17;2.22;;;;;;;23.31;52.60;99658.50;4852416;29;20042;-91
2022/07/24 03:10:18;;;;;;;2.95;1.70;;;;;;;23.29;52.27;99638.88;4853158;29;20052;-91
2022/07/24 03:12:44;;;;;;;3.10;1.90;;;;;;;23.47;52.05;99654.75;4838175;29;20049;-88
2022/07/24 03:15:12;;;;;;;4.20;1.90;;;;;;;23.55;51.78;99642.44;4849479;29;20072;-89
2022/07/24 03:17:37;;;;;;;12.45;2.53;;;;;;;23.40;52.07;99620.19;4858497;29;20041;-89
2022/07/24 03:20:04;;;;;;;2.42;1.60;;;;;;;23.62;52.56;99656.38;4855379;29;20106;-88
2022/07/24 03:22:30;;;;;;;2.88;1.63;;;;;;;23.55;52.22;99636.22;4862592;29;20037;-89
2022/07/24 03:24:55;;;;;;;3.05;1.83;;;;;;;23.51;52.60;99651.72;4836227;29;20042;-90
2022/07/24 03:27:21;;;;;;;4.03;2.28;;;;;;;23.41;52.92;99634.50;4837387;29;20033;-91
2022/07/24 03:29:47;;;;;;;4.53;2.13;;;;;;;23.39;52.47;99620.28;4837501;29;20737;-89
2022/07/24 03:32:12;;;;;;;3.00;2.10;;;;;;;23.38;52.31;99607.78;4851390;29;20854;-90
2022/07/24 03:34:39;;;;;;;5.68;2.17;;;;;;;23.62;52.72;99653.69;4836934;29;20054;-91
2022/07/24 03:37:04;;;;;;;4.45;2.45;;;;;;;23.43;52.59;99624.47;4837633;29;20038;-88
2022/07/24 03:39:30;;;;;;;2.50;1.63;;;;;;;23.41;52.61;99623.72;4837511;29;20467;-90
2022/07/24 03:41:55;;;;;;;2.95;2.08;;;;;;;23.64;52.13;99649.03;4837205;29;20124;-89
2022/07/24 03:44:21;;;;;;;4.63;2.33;;;;;;;23.32;51.84;99643.19;4837135;29;20117;-89
2022/07/24 03:46:47;;;;;;;5.07;2.38;;;;;;;23.35;51.12;99614.22;4837418;29;20052;-89
2022/07/24 03:49:12;;;;;;;2.65;1.88;;;;;;;23.56;51.26;99644.19;4836729;29;20072;-90
2022/07/24 03:51:38;;;;;;;3.38;2.40;;;;;;;23.72;52.17;99667.34;4851395;29;20038;-89
2022/07/24 03:54:04;;;;;;;4.18;2.10;;;;;;;23.71;52.44;99653.03;4835786;29;20073;-89
2022/07/24 03:56:30;;;;;;;3.30;1.77;;;;;;;23.91;52.59;99678.59;4835725;29;20781;-90
2022/07/24 03:58:55;;;;;;;4.82;2.03;;;;;;;23.63;53.00;99671.53;4835177;29;20517;-90
2022/07/24 04:01:22;;;;;;;9.20;2.03;;;;;;;23.68;52.38;99657.75;4837108;29;20417;-89
2022/07/24 04:03:48;;;;;;;2.72;1.88;;;;;;;23.33;52.36;99618.88;4851298;29;20054;-90
2022/07/24 04:06:14;;;;;;;2.50;2.00;;;;;;;23.88;51.56;99677.91;4851220;29;20125;-91
2022/07/24 04:08:39;;;;;;;4.00;2.05;;;;;;;23.90;51.25;99671.47;4833724;29;20556;-90
2022/07/24 04:11:07;;;;;;;3.47;2.50;;;;;;;23.97;51.72;99671.03;4850883;29;20589;-92
2022/07/24 04:13:32;;;;;;;3.70;2.17;;;;;;;23.89;51.27;99618.56;4851712;29;20049;-91
2022/07/24 04:15:58;;;;;;;4.15;2.83;;;;;;;24.02;51.16;99655.38;4851371;29;20050;-91
2022/07/24 04:18:24;;;;;;;4.57;2.78;;;;;;;24.05;51.10;99639.00;4836369;29;20045;-94
2022/07/24 04:20:49;;;;;;;4.97;2.78;;;;;;;24.25;51.34;99649.22;4851519;29;20519;-94
2022/07/24 04:23:16;;;;;;;4.65;3.55;;;;;;;24.05;50.83;99617.44;4835490;29;20088;-92
2022/07/24 04:25:42;;;;;;;4.40;2.33;;;;;;;24.40;50.18;99644.53;4835141;29;20040;-90
2022/07/24 04:28:08;;;;;;;6.05;2.53;;;;;;;24.68;49.53;99674.88;4836564;29;20546;-91
2022/07/24 04:30:34;;;;;;;4.35;3.10;;;;;;;24.82;49.04;99653.16;4835472;29;20128;-90
2022/07/24 04:33:00;;;;;;;4.10;2.83;;;;;;;24.94;49.14;99674.78;4850869;29;20437;-95
2022/07/24 04:35:26;;;;;;;3.70;2.17;;;;;;;25.19;48.99;99669.25;4851957;29;20060;-93
2022/07/24 04:37:51;;;;;;;5.50;3.00;;;;;;;25.37;48.78;99675.09;4836333;29;20505;-93
2022/07/24 04:40:17;;;;;;;2.72;1.95;;;;;;;25.31;48.23;99680.97;4850670;29;20042;-93
2022/07/24 04:42:43;;;;;;;9.93;3.13;;;;;;;25.28;48.41;99666.81;4850142;29;20037;-92
2022/07/24 04:45:10;;;;;;;4.05;2.50;;;;;;;25.45;48.05;99662.84;4851656;29;20097;-93
2022/07/24 04:47:36;;;;;;;18.73;3.17;;;;;;;25.50;47.78;99663.34;4851508;29;20045;-91
2022/07/24 04:50:03;;;;;;;7.43;3.10;;;;;;;25.62;47.67;99680.44;4837515;29;20509;-91
2022/07/24 04:52:28;;;;;;;4.45;2.60;;;;;;;25.64;47.67;99675.75;4850816;29;20492;-92
2022/07/24 04:54:54;;;;;;;8.10;3.05;;;;;;;25.51;47.97;99667.75;4835313;29;20065;-94
2022/07/24 04:57:19;;;;;;;5.93;3.42;;;;;;;25.78;47.28;99678.25;4850269;29;20073;-91
2022/07/24 04:59:45;;;;;;;3.97;2.70;;;;;;;25.82;47.04;99674.31;4836584;29;20072;-94
2022/07/24 05:02:11;;;;;;;5.97;3.90;;;;;;;25.67;46.91;99641.28;4835921;29;20042;-92
2022/07/24 05:04:37;;;;;;;2.13;1.60;;;;;;;26.03;45.75;99665.53;4850851;29;20099;-94
2022/07/24 05:07:03;;;;;;;4.97;2.70;;;;;;;26.22;45.47;99683.81;4850843;29;20038;-93
2022/07/24 05:09:29;;;;;;;9.68;3.10;;;;;;;26.39;44.96;99677.06;4850269;29;20046;-94
2022/07/24 05:11:54;;;;;;;3.17;2.35;;;;;;;26.51;44.52;99662.53;4851179;29;20033;-93
2022/07/24 05:14:20;;;;;;;3.90;2.70;;;;;;;26.55;44.73;99665.84;4835707;29;20038;-93
2022/07/24 05:16:46;;;;;;;5.25;2.70;;;;;;;26.77;44.33;99679.34;4850833;29;20045;-93
2022/07/24 05:19:12;;;;;;;5.22;3.55;;;;;;;26.85;44.09;99670.59;4851017;29;20033;-94
2022/07/24 05:21:38;;;;;;;6.15;3.42;;;;;;;27.14;43.96;99669.97;4850925;29;20045;-94
2022/07/24 05:24:04;;;;;;;4.03;2.47;;;;;;;27.26;44.13;99662.66;4848437;29;20030;-94
2022/07/24 05:26:31;;;;;;;5.25;2.90;;;;;;;27.32;43.55;99635.09;4833420;29;20552;-94
2022/07/24 05:29:02;;;;;;;6.03;3.78;;;;;;;27.44;43.29;99662.97;4834398;29;20421;-95
2022/07/24 05:31:28;;;;;;;6.63;2.75;;;;;;;27.47;42.58;99662.72;4849564;29;20042;-89
2022/07/24 05:33:54;;;;;;;4.40;3.42;;;;;;;27.84;42.61;99667.63;4833933;29;20410;-93
2022/07/24 05:36:20;;;;;;;4.35;2.30;;;;;;;27.72;42.07;99645.16;4818875;29;20042;-94
2022/07/24 05:38:46;;;;;;;7.75;4.22;;;;;;;28.12;41.35;99647.09;4849841;29;20038;-95
2022/07/24 05:41:12;;;;;;;5.00;3.05;;;;;;;28.14;41.28;99636.13;4835304;29;20042;-95
2022/07/24 05:43:38;;;;;;;5.55;2.72;;;;;;;28.61;40.22;99649.09;4833040;29;20085;-95
2022/07/24 05:46:04;;;;;;;5.28;3.28;;;;;;;28.99;40.30;99648.28;4836378;29;20199;-94
2022/07/24 05:48:31;;;;;;;4.28;2.58;;;;;;;28.94;39.76;99659.56;4849642;29;20489;-93
2022/07/24 05:50:58;;;;;;;5.60;2.53;;;;;;;28.89;39.85;99667.28;4846167;29;20129;-94
2022/07/24 05:53:23;;;;;;;6.72;3.28;;;;;;;29.25;40.25;99664.03;4824967;29;20049;-93
2022/07/24 05:55:50;;;;;;;5.95;3.45;;;;;;;29.19;39.60;99661.88;4849239;29;20042;-93
2022/07/24 05:58:17;;;;;;;4.63;3.00;;;;;;;29.28;39.20;99648.31;4834933;29;20054;-92
2022/07/24 06:00:43;;;;;;;6.22;4.07;;;;;;;29.36;38.92;99630.44;4849275;29;20161;-95
2022/07/24 06:03:08;;;;;;;5.38;2.70;;;;;;;29.50;38.52;99659.84;4849436;29;20499;-90
2022/07/24 06:05:34;;;;;;;4.88;3.30;;;;;;;29.82;38.33;99661.38;4835503;29;20034;-94
2022/07/24 06:08:01;;;;;;;5.93;3.58;;;;;;;30.04;37.32;99651.16;4833226;29;20121;-95
2022/07/24 06:10:28;;;;;;;6.63;5.07;;;;;;;30.18;36.34;99656.09;4836256;29;20056;-94
2022/07/24 06:12:54;;;;;;;8.07;4.25;;;;;;;30.30;36.31;99656.75;4829637;29;20568;-93
2022/07/24 06:15:21;;;;;;;7.13;3.85;;;;;;;30.52;36.13;99648.22;4852603;29;20070;-92
2022/07/24 06:17:46;;;;;;;7.53;4.40;;;;;;;30.53;38.12;99630.00;4838307;29;20129;-91
2022/07/24 06:20:12;;;;;;;5.47;4.25;;;;;;;30.68;37.05;99635.78;4851283;29;20120;-92
2022/07/24 06:22:41;;;;;;;8.55;5.30;;;;;;;31.15;34.81;99641.00;4838661;29;20034;-91
2022/07/24 06:25:07;;;;;;;6.03;3.83;;;;;;;31.26;34.75;99609.94;4827224;29;20054;-94
2022/07/24 06:27:33;;;;;;;13.45;4.75;;;;;;;31.80;34.06;99628.91;4832020;29;20038;-92
2022/07/24 06:29:58;;;;;;;5.97;3.97;;;;;;;32.21;33.49;99633.72;4837950;29;20491;-92
2022/07/24 06:32:24;;;;;;;6.03;4.15;;;;;;;32.40;32.31;99619.81;4851519;29;20194;-91
2022/07/24 06:34:49;;;;;;;4.75;3.50;;;;;;;32.41;32.35;99601.53;4837841;29;20054;-92
2022/07/24 06:37:15;;;;;;;35.95;4.85;;;;;;;32.72;31.33;99618.22;4839010;29;20038;-91
2022/07/24 06:39:40;;;;;;;6.95;4.13;;;;;;;32.69;31.03;99602.16;4839053;29;20042;-90
2022/07/24 06:42:06;;;;;;;6.43;4.18;;;;;;;32.83;32.35;99623.34;4839125;29;20045;-88
2022/07/24 06:44:33;;;;;;;3.78;3.22;;;;;;;32.63;31.92;99617.31;4837304;29;20529;-89
2022/07/24 06:46:59;;;;;;;4.90;2.92;;;;;;;33.04;33.96;99616.50;4819938;29;20042;-89
2022/07/24 06:49:24;;;;;;;5.47;3.97;;;;;;;32.60;31.33;99594.94;4827245;29;20162;-90
2022/07/24 06:51:50;;;;;;;4.40;2.97;;;;;;;32.68;31.05;99564.09;4851871;29;20087;-89
2022/07/24 06:54:15;;;;;;;7.25;3.78;;;;;;;32.79;31.01;99577.41;4829740;29;20064;-90
2022/07/24 06:56:41;;;;;;;8.52;3.58;;;;;;;33.29;30.75;99584.63;4852681;29;20053;-90
2022/07/24 06:59:08;;;;;;;6.45;4.07;;;;;;;33.26;31.94;99604.09;4852795;29;20054;-89
2022/07/24 07:01:35;;;;;;;4.25;3.08;;;;;;;32.49;31.91;99585.22;4838248;29;20042;-90
2022/07/24 07:04:00;;;;;;;6.00;3.55;;;;;;;32.74;31.83;99574.34;4838421;29;20091;-90
2022/07/24 07:06:26;;;;;;;4.93;2.70;;;;;;;33.18;30.62;99601.31;4847050;29;20049;-91
2022/07/24 07:08:53;;;;;;;9.70;3.80;;;;;;;32.76;30.10;99578.59;4845445;29;20030;-90
2022/07/24 07:11:18;;;;;;;6.82;4.00;;;;;;;33.01;31.93;99557.63;4833898;29;20509;-92
2022/07/24 07:13:44;;;;;;;6.03;3.58;;;;;;;32.40;33.15;99526.16;4831653;29;20045;-95
2022/07/24 07:16:10;;;;;;;4.57;3.13;;;;;;;33.51;31.50;99585.75;4825336;29;20046;-91
2022/07/24 07:18:36;;;;;;;9.55;3.97;;;;;;;33.98;29.85;99577.78;4848284;29;20045;-91
2022/07/24 07:21:02;;;;;;;16.70;3.63;;;;;;;33.49;30.47;99552.28;4832996;29;20045;-91
2022/07/24 07:23:28;;;;;;;4.13;3.00;;;;;;;33.02;33.12;99575.72;4833564;29;20110;-90
2022/07/24 07:25:54;;;;;;;7.60;3.95;;;;;;;33.28;33.32;99565.66;4838118;29;20038;-90
2022/07/24 07:28:20;;;;;;;6.05;3.10;;;;;;;33.56;31.08;99544.22;4802758;29;20054;-91
2022/07/24 07:30:47;;;;;;;8.68;4.53;;;;;;;33.64;30.71;99557.88;4831464;29;20042;-91
2022/07/24 07:33:12;;;;;;;6.03;3.63;;;;;;;33.39;32.40;99584.41;4820478;29;20516;-91
2022/07/24 07:35:38;;;;;;;4.80;3.35;;;;;;;32.88;31.02;99534.59;4820650;29;20049;-92
2022/07/24 07:38:04;;;;;;;6.45;3.80;;;;;;;33.49;32.76;99573.28;4836190;29;20948;-91
2022/07/24 07:40:29;;;;;;;5.80;3.38;;;;;;;33.34;31.09;99578.63;4837392;29;20037;-90
2022/07/24 07:42:55;;;;;;;4.72;3.45;;;;;;;32.72;33.18;99569.06;4837183;29;20090;-90
2022/07/24 07:45:21;;;;;;;5.63;3.70;;;;;;;32.98;34.08;99559.81;4837080;29;20061;-91
2022/07/24 07:47:46;;;;;;;4.68;3.20;;;;;;;32.55;33.55;99559.97;4851861;29;20073;-93
2022/07/24 07:50:15;;;;;;;6.85;4.13;;;;;;;32.67;33.49;99525.00;4838429;29;20129;-93
2022/07/24 07:52:40;;;;;;;5.90;4.35;;;;;;;33.15;32.21;99545.16;4837659;29;20061;-93
2022/07/24 07:55:07;;;;;;;8.25;4.78;;;;;;;33.34;31.70;99545.84;4837080;29;20494;-91
2022/07/24 07:57:33;;;;;;;8.88;4.43;;;;;;;33.73;30.79;99514.97;4837414;29;20501;-91
2022/07/24 07:59:58;;;;;;;8.07;4.72;;;;;;;34.55;30.41;99568.44;4837526;29;20098;-92
2022/07/24 08:02:24;;;;;;;5.25;3.80;;;;;;;33.81;30.48;99558.69;4829812;29;20042;-90
2022/07/24 08:04:49;;;;;;;8.93;4.22;;;;;;;33.58;31.30;99549.53;4833683;29;20046;-89
2022/07/24 08:07:15;;;;;;;6.82;4.35;;;;;;;33.81;31.88;99545.00;4837396;29;20052;-88
2022/07/24 08:09:40;;;;;;;5.03;3.97;;;;;;;34.12;30.20;99548.81;4838486;29;20038;-88
2022/07/24 08:12:06;;;;;;;6.15;3.78;;;;;;;34.17;31.53;99543.66;4838773;29;20044;-90
2022/07/24 08:14:32;;;;;;;7.07;4.22;;;;;;;34.42;32.15;99550.72;4837162;29;20076;-87
2022/07/24 08:16:58;;;;;;;6.25;3.47;;;;;;;34.21;29.04;99545.00;4838410;29;20038;-89
2022/07/24 08:19:23;;;;;;;5.38;3.75;;;;;;;34.29;31.06;99524.97;4837281;29;20037;-90
2022/07/24 08:21:49;;;;;;;6.07;4.03;;;;;;;34.30;30.59;99554.91;4839420;29;20038;-89
2022/07/24 08:24:20;;;;;;;6.22;3.50;;;;;;;33.64;28.84;99499.59;4837104;29;20046;-89
2022/07/24 08:26:47;;;;;;;5.53;3.90;;;;;;;33.72;29.45;99535.13;4839041;29;20038;-92
2022/07/24 08:29:12;;;;;;;6.25;4.00;;;;;;;34.27;29.25;99519.69;4839122;29;20045;-86
2022/07/24 08:31:38;;;;;;;6.15;3.92;;;;;;;34.20;32.11;99535.94;4839355;29;20505;-87
2022/07/24 08:34:04;;;;;;;6.35;4.63;;;;;;;33.97;29.77;99538.63;4839411;29;20433;-87
2022/07/24 08:36:30;;;;;;;4.82;3.53;;;;;;;33.84;30.88;99521.94;4840389;29;20030;-87
2022/07/24 08:38:57;;;;;;;6.18;3.83;;;;;;;34.35;30.08;99530.56;4840190;29;20041;-88
2022/07/24 08:41:24;;;;;;;6.50;3.80;;;;;;;34.92;32.38;99515.59;4839791;29;20058;-85
2022/07/24 08:43:49;;;;;;;6.78;4.75;;;;;;;35.47;29.27;99512.69;4838665;29;20042;-85
2022/07/24 08:46:16;;;;;;;8.27;3.70;;;;;;;35.34;27.88;99507.84;4837583;29;20042;-88
2022/07/24 08:48:45;;;;;;;4.95;3.35;;;;;;;35.23;29.61;99516.50;4837304;29;20026;-86
2022/07/24 08:51:15;;;;;;;7.95;3.72;;;;;;;35.06;31.00;99527.63;4837373;29;20048;-88
2022/07/24 08:53:43;;;;;;;6.70;3.25;;;;;;;35.50;28.51;99536.97;4836870;29;20038;-88
2022/07/24 08:56:09;;;;;;;6.72;3.42;;;;;;;35.81;27.47;99525.81;4837299;29;20037;-89
2022/07/24 08:58:37;;;;;;;7.95;3.97;;;;;;;35.62;28.03;99516.28;4836434;29;20128;-88
2022/07/24 09:01:03;;;;;;;5.47;3.45;;;;;;;35.06;28.36;99497.47;4837657;29;20033;-90
2022/07/24 09:03:38;;;;;;;5.63;4.03;;;;;;;35.18;30.07;99503.38;4838392;29;20034;-87
2022/07/24 09:06:07;;;;;;;5.10;3.35;;;;;;;35.65;30.10;99495.81;4837377;29;20057;-90
2022/07/24 09:08:33;;;;;;;6.85;2.85;;;;;;;36.02;31.22;99516.81;4836349;29;20040;-86
2022/07/24 09:11:04;;;;;;;4.22;3.47;;;;;;;36.29;28.39;99514.38;4838075;29;20037;-89
2022/07/24 09:14:29;;;;;;;6.65;3.35;;;;;;;35.91;28.72;99511.78;4839207;29;20037;-90
2022/07/24 09:16:24;;;;;;;6.68;3.33;;;;;;;35.75;26.97;99488.16;4836581;29;20125;-91
2022/07/24 09:19:02;;;;;;;3.87;2.50;;;;;;;35.71;27.52;99489.56;4851159;29;20469;-90
2022/07/24 09:21:33;;;;;;;5.00;2.90;;;;;;;35.86;28.67;99511.53;4832288;29;20054;-92
2022/07/24 09:24:02;;;;;;;17.08;3.95;;;;;;;35.45;28.49;99473.59;4826339;29;20047;-91
2022/07/24 09:26:47;;;;;;;6.32;3.00;;;;;;;35.41;27.69;99489.59;4824410;29;20048;-86
2022/07/24 09:29:15;;;;;;;6.20;3.47;;;;;;;35.91;28.44;99505.47;4835775;29;20034;-88
2022/07/24 09:31:57;;;;;;;4.07;3.10;;;;;;;36.02;28.61;99507.69;4834380;29;20037;-86
2022/07/24 09:34:24;;;;;;;5.07;3.17;;;;;;;36.23;26.48;99457.47;4835779;29;20115;-87
2022/07/24 09:36:59;;;;;;;5.80;3.03;;;;;;;36.33;28.10;99495.63;4834744;29;20160;-89
2022/07/24 09:39:25;;;;;;;;;;;;;;;36.37;28.38;99488.69;4823740;29;20038;-88
2022/07/24 09:41:53;;;;;;;4.72;2.80;;;;;;;36.77;25.96;99472.59;4818262;29;19917;-89
2022/07/24 09:44:18;;;;;;;5.45;3.17;;;;;;;37.23;25.30;99465.75;4831055;29;20053;-90
2022/07/24 09:46:53;;;;;;;4.85;3.42;;;;;;;36.72;27.37;99440.22;4821667;29;20035;-89
2022/07/24 09:49:23;;;;;;;7.85;3.55;;;;;;;36.80;26.38;99463.97;4822604;29;20498;-89
2022/07/24 09:52:07;;;;;;;4.88;3.28;;;;;;;37.31;26.44;99470.25;4823074;29;20043;-88
2022/07/24 09:54:44;;;;;;;4.47;2.92;;;;;;;37.00;26.32;99466.00;4822674;29;20049;-88
2022/07/24 09:57:24;;;;;;;4.50;3.30;;;;;;;36.84;25.50;99439.69;4823145;29;20113;-90
2022/07/24 09:59:59;;;;;;;3.97;2.75;;;;;;;36.50;25.48;99436.66;4823611;29;20037;-91
2022/07/24 10:02:26;;;;;;;;;;;;;;;36.99;26.39;99467.06;4822900;29;20034;-87
2022/07/24 10:04:51;;;;;;;5.47;2.30;;;;;;;37.22;26.52;99461.28;4840587;29;20807;-85
2022/07/24 10:07:20;;;;;;;4.80;2.85;;;;;;;36.78;26.36;99429.50;4854111;29;20046;-88
2022/07/24 10:09:49;;;;;;;5.25;2.80;;;;;;;36.78;25.54;99456.97;4839723;29;20581;-87
2022/07/24 10:12:19;;;;;;;7.28;2.88;;;;;;;36.55;26.18;99450.63;4840109;29;20041;-91
2022/07/24 10:14:47;;;;;;;7.05;3.30;;;;;;;36.80;26.51;99413.69;4829122;29;20513;-88
2022/07/24 10:17:14;;;;;;;4.13;3.10;;;;;;;37.14;26.13;99443.06;4821859;29;20034;-90
2022/07/24 10:19:44;;;;;;;3.95;2.72;;;;;;;37.01;26.18;99448.47;4837516;29;20033;-87
2022/07/24 10:22:12;;;;;;;4.63;2.90;;;;;;;36.70;26.00;99427.72;4837065;29;20038;-88
2022/07/24 10:25:08;;;;;;;4.05;2.35;;;;;;;37.70;27.47;99438.53;4839242;29;20049;-85
2022/07/24 10:27:36;;;;;;;7.32;3.30;;;;;;;37.77;24.95;99429.25;4830703;29;20133;-86
2022/07/24 10:30:08;;;;;;;4.90;3.03;;;;;;;37.53;26.01;99427.84;4838158;29;20426;-89
2022/07/24 10:32:35;;;;;;;4.93;3.20;;;;;;;37.25;25.81;99412.28;4837809;29;20121;-90
2022/07/24 10:35:22;;;;;;;3.80;2.40;;;;;;;37.30;25.53;99427.31;4838778;29;20058;-90
2022/07/24 10:38:16;;;;;;;5.03;3.40;;;;;;;37.58;25.13;99433.56;4838527;29;20053;-88
2022/07/24 10:40:47;;;;;;;4.97;2.75;;;;;;;38.07;26.42;99404.09;4838453;29;20037;-87
2022/07/24 10:43:17;;;;;;;8.13;3.15;;;;;;;38.03;23.70;99413.00;4837592;29;20497;-86
2022/07/24 10:45:58;;;;;;;8.40;3.15;;;;;;;38.12;24.33;99412.56;4838411;29;20037;-89
2022/07/24 10:48:27;;;;;;;3.47;2.33;;;;;;;38.35;23.59;99407.78;4837889;29;20687;-88
2022/07/24 10:50:59;;;;;;;4.28;2.75;;;;;;;37.94;26.72;99415.94;4839006;29;20857;-87
2022/07/24 10:53:26;;;;;;;5.45;3.15;;;;;;;38.30;23.82;99358.84;4837934;29;20034;-88
2022/07/24 10:55:54;;;;;;;5.95;3.38;;;;;;;38.35;25.12;99381.06;4837980;29;20041;-88
2022/07/24 10:58:21;;;;;;;5.70;3.72;;;;;;;38.01;27.69;99388.44;4837882;29;20038;-87
2022/07/24 11:00:50;;;;;;;4.75;3.00;;;;;;;38.11;24.51;99363.22;4838289;29;20128;-89
2022/07/24 11:03:25;;;;;;;6.32;3.92;;;;;;;38.22;24.89;99356.28;4838098;29;20592;-89
2022/07/24 11:06:07;;;;;;;7.70;3.85;;;;;;;38.33;26.21;99397.81;4833733;29;20137;-87
2022/07/24 11:08:53;;;;;;;4.38;3.05;;;;;;;38.22;27.51;99384.69;4838535;29;20053;-88
2022/07/24 11:11:21;;;;;;;4.82;2.72;;;;;;;38.37;25.12;99348.66;4837122;29;20113;-88
2022/07/24 11:13:57;;;;;;;7.50;3.25;;;;;;;38.76;23.92;99373.63;4836723;29;20153;-88
2022/07/24 11:16:28;;;;;;;4.80;3.13;;;;;;;39.00;25.55;99375.69;4838257;29;20038;-88
2022/07/24 11:18:54;;;;;;;5.53;3.35;;;;;;;38.60;24.22;99378.50;4834416;29;20083;-86
2022/07/24 11:21:29;;;;;;;4.57;2.90;;;;;;;38.62;22.61;99379.16;4819682;29;20038;-89
2022/07/24 11:24:16;;;;;;;5.38;2.60;;;;;;;38.71;22.76;99371.53;4820091;29;20030;-88
2022/07/24 11:27:06;;;;;;;3.35;2.33;;;;;;;38.66;22.85;99377.69;4819681;29;20049;-91
2022/07/24 11:29:37;;;;;;;5.25;2.72;;;;;;;38.61;22.09;99327.88;4830768;29;20038;-90
2022/07/24 11:32:07;;;;;;;4.40;2.75;;;;;;;38.38;20.17;99335.75;4837426;29;20497;-89
2022/07/24 11:34:34;;;;;;;3.35;2.30;;;;;;;38.37;22.15;99331.28;4836071;29;20441;-88